createdAt,value
2023-12-16T07:15:17.720Z,103088.03
2023-12-16T07:20:20.511Z,103106.53
2023-12-16T07:25:23.136Z,103108.72
2023-12-16T07:30:25.864Z,103110.56
2023-12-16T07:35:28.543Z,103096.03
2023-12-16T07:40:33.186Z,103108.56
2023-12-16T07:45:37.415Z,103111.44
2023-12-16T07:50:40.047Z,103112.91
2023-12-16T07:55:42.670Z,103101.78
2023-12-16T08:00:45.368Z,103118.88
2023-12-16T08:05:48.045Z,103120.13
2023-12-16T08:10:54.250Z,103111.41
2023-12-16T08:15:56.979Z,103107.06
2023-12-16T08:20:59.659Z,103115.22
2023-12-16T08:26:02.439Z,103105.94
2023-12-16T08:31:08.234Z,103109.00
2023-12-16T08:36:10.973Z,103105.38
2023-12-16T08:41:13.741Z,103091.75
2023-12-16T08:46:16.689Z,103074.63
2023-12-16T08:51:25.363Z,103086.44
2023-12-16T08:56:27.968Z,103088.06
2023-12-16T09:01:31.313Z,103078.69
2023-12-16T09:06:38.550Z,103076.81
2023-12-16T09:11:47.365Z,103087.97
2023-12-16T09:16:49.934Z,103095.69
2023-12-16T09:21:52.638Z,103095.59
2023-12-16T09:26:55.282Z,103086.38
2023-12-16T09:31:57.946Z,103083.34
2023-12-16T09:37:00.599Z,103082.38
2023-12-16T09:42:04.374Z,103077.28
2023-12-16T09:47:10.108Z,103081.69
2023-12-16T09:52:14.038Z,103085.75
2023-12-16T09:57:19.750Z,103095.31
2023-12-16T10:02:29.587Z,103082.31
2023-12-16T10:07:32.447Z,103076.00
2023-12-16T10:12:35.360Z,103064.41
2023-12-16T10:17:38.733Z,103070.06
2023-12-16T10:22:44.279Z,103066.72
2023-12-16T10:27:48.852Z,103078.91
2023-12-16T10:32:51.564Z,103084.22
2023-12-16T10:37:56.135Z,103088.00
2023-12-16T10:42:59.228Z,103079.44
2023-12-16T10:48:05.251Z,103063.25
2023-12-16T10:53:15.805Z,103048.13
2023-12-16T10:58:29.826Z,103051.22
2023-12-16T11:03:40.148Z,103023.19
2023-12-16T11:08:42.775Z,103034.03
2023-12-16T11:13:45.826Z,103014.78
2023-12-16T11:18:50.643Z,103014.41
2023-12-16T11:23:54.909Z,103013.25
2023-12-16T11:28:57.625Z,103007.50
2023-12-16T11:34:00.768Z,102999.19
2023-12-16T11:39:04.486Z,102989.53
2023-12-16T11:44:08.795Z,102980.38
2023-12-16T11:49:14.565Z,102975.09
2023-12-16T11:54:17.329Z,102968.66
2023-12-16T11:59:20.033Z,102959.50
2023-12-16T12:04:22.730Z,102951.34
2023-12-16T12:09:25.471Z,102943.47
2023-12-16T12:14:28.595Z,102931.44
2023-12-16T12:19:31.308Z,102917.72
2023-12-16T12:24:34.138Z,102917.84
2023-12-16T12:29:56.381Z,102899.03
2023-12-16T12:35:07.558Z,102897.34
2023-12-16T12:40:14.496Z,102883.47
2023-12-16T12:45:34.237Z,102878.63
2023-12-16T12:50:37.950Z,102868.81
2023-12-16T12:55:44.433Z,102872.97
2023-12-16T13:00:47.547Z,102876.91
2023-12-16T13:05:50.974Z,102880.88
2023-12-16T13:10:53.973Z,102878.13
2023-12-16T13:15:58.342Z,102874.88
2023-12-16T13:21:01.808Z,102868.91
2023-12-16T13:26:11.929Z,102884.50
2023-12-16T13:31:14.721Z,102887.72
2023-12-16T13:36:33.705Z,102881.69
2023-12-16T13:41:40.618Z,102881.03
2023-12-16T13:46:44.310Z,102892.38
2023-12-16T13:51:46.887Z,102897.19
2023-12-16T13:56:49.699Z,102892.75
2023-12-16T14:01:52.477Z,102900.72
2023-12-16T14:06:55.150Z,102892.59
2023-12-16T14:11:57.776Z,102887.72
2023-12-16T14:17:00.635Z,102875.22
2023-12-16T14:22:03.385Z,102868.31
2023-12-16T14:27:06.099Z,102871.84
2023-12-16T14:32:08.839Z,102870.28
2023-12-16T14:37:11.435Z,102865.59
2023-12-16T14:42:14.297Z,102868.38
2023-12-16T14:47:16.922Z,102862.63
2023-12-16T14:52:19.533Z,102852.34
2023-12-16T14:57:22.121Z,102859.72
2023-12-16T15:02:25.505Z,102863.44
2023-12-16T15:07:28.237Z,102864.06
2023-12-16T15:12:30.966Z,102863.72
2023-12-16T15:17:34.990Z,102856.16
2023-12-16T15:22:38.550Z,102841.81
2023-12-16T15:27:42.133Z,102837.88
2023-12-16T15:32:45.033Z,102841.00
2023-12-16T15:37:47.681Z,102834.84
2023-12-16T15:42:50.275Z,102834.09
2023-12-16T15:47:53.009Z,102837.53
2023-12-16T15:52:55.713Z,102834.97
2023-12-16T15:57:58.476Z,102841.72
2023-12-16T16:03:02.205Z,102839.19
2023-12-16T16:08:05.789Z,102837.38
2023-12-16T16:13:13.471Z,102841.72
2023-12-16T16:18:17.413Z,102843.69
2023-12-16T16:23:20.091Z,102851.38
2023-12-16T16:28:22.863Z,102858.53
2023-12-16T16:33:25.701Z,102852.75
2023-12-16T16:38:29.907Z,102836.97
2023-12-16T16:43:32.569Z,102821.53
2023-12-16T16:48:35.326Z,102820.44
2023-12-16T16:53:38.137Z,102808.28
2023-12-16T16:58:43.432Z,102816.66
2023-12-16T17:03:46.133Z,102818.31
2023-12-16T17:08:48.795Z,102819.38
2023-12-16T17:13:51.430Z,102816.84
2023-12-16T17:18:54.203Z,102812.81
2023-12-16T17:23:57.845Z,102817.91
2023-12-16T17:29:00.566Z,102810.25
2023-12-16T17:34:03.327Z,102802.78
2023-12-16T17:39:06.970Z,102813.28
2023-12-16T17:44:09.935Z,102808.56
2023-12-16T17:49:12.785Z,102825.63
2023-12-16T17:54:15.444Z,102816.50
2023-12-16T17:59:18.129Z,102812.44
2023-12-16T18:04:21.039Z,102800.53
2023-12-16T18:09:23.774Z,102800.34
2023-12-16T18:14:26.815Z,102806.34
2023-12-16T18:19:30.919Z,102817.44
2023-12-16T18:24:33.647Z,102817.59
2023-12-16T18:29:39.349Z,102821.22
2023-12-16T18:34:42.575Z,102840.91
2023-12-16T18:39:45.700Z,102836.69
2023-12-16T18:44:48.600Z,102837.59
2023-12-16T18:49:51.360Z,102827.75
2023-12-16T18:54:54.033Z,102826.97
2023-12-16T18:59:56.641Z,102832.25
2023-12-16T19:04:59.458Z,102818.03
2023-12-16T19:10:05.954Z,102797.97
2023-12-16T19:15:08.911Z,102814.50
2023-12-16T19:20:12.023Z,102807.94
2023-12-16T19:25:14.963Z,102786.94
2023-12-16T19:30:17.817Z,102787.25
2023-12-16T19:35:20.653Z,102780.69
2023-12-16T19:40:23.341Z,102788.66
2023-12-16T19:45:26.123Z,102795.59
2023-12-16T19:50:28.848Z,102807.94
2023-12-16T19:55:31.578Z,102790.38
2023-12-16T20:00:35.516Z,102792.34
2023-12-16T20:05:38.287Z,102802.00
2023-12-16T20:10:43.310Z,102804.84
2023-12-16T20:15:46.025Z,102801.56
2023-12-16T20:20:48.732Z,102816.28
2023-12-16T20:25:52.493Z,102802.06
2023-12-16T20:30:55.356Z,102809.88
2023-12-16T20:35:57.978Z,102808.56
2023-12-16T20:41:00.621Z,102804.53
2023-12-16T20:46:04.073Z,102799.72
2023-12-16T20:51:06.976Z,102789.69
2023-12-16T20:56:10.438Z,102806.81
2023-12-16T21:01:13.129Z,102791.75
2023-12-16T21:06:16.097Z,102775.91
2023-12-16T21:11:18.818Z,102771.88
2023-12-16T21:16:22.850Z,102751.47
2023-12-16T21:21:25.515Z,102763.91
2023-12-16T21:26:28.376Z,102760.47
2023-12-16T21:31:31.062Z,102745.91
2023-12-16T21:36:33.738Z,102736.59
2023-12-16T21:41:36.424Z,102746.66
2023-12-16T21:46:39.096Z,102742.44
2023-12-16T21:51:42.019Z,102750.28
2023-12-16T21:56:44.891Z,102745.16
2023-12-16T22:01:47.623Z,102766.66
2023-12-16T22:06:50.263Z,102759.00
2023-12-16T22:11:52.923Z,102755.66
2023-12-16T22:16:55.633Z,102750.56
2023-12-16T22:21:59.494Z,102761.66
2023-12-16T22:27:02.191Z,102745.47
2023-12-16T22:32:05.252Z,102761.66
2023-12-16T22:37:07.914Z,102761.66
2023-12-16T22:42:10.824Z,102761.84
2023-12-16T22:47:13.543Z,102783.91
2023-12-16T22:52:16.156Z,102797.91
